Francesville, Indiana
Current Conditions -  °F | °C
As of 10:35 AM on Wednesday 22 Oct 2014 (Local Time) from KRZL Reporting Station
Clear Clear  
Wind Chill: 50°   Ceiling: Unl
Heat Index: 50°   Visibility: 10mi
Dew Point: 39°   Wind: 3mph
Humidity: 66%   Direction: 30°NNE
Pressure: 30.37"   Gusts: NA
Location:  40.99°N, 86.88°W
Report Text: KRZL 221535Z AUTO 03003KT 10SM CLR 10/04 A3037 RMK AO2
Loading
Personal Weather Stations






























Interactive Weather Map
Tropical Storm Tracking
New forecast layout! Learn more

10-Day Weather Forecast

Advertisements
Track Severe Weather on mobile